createdAt,value
2019-01-04T00:00:19.336Z,1025.48
2019-01-04T00:01:19.369Z,1025.49
2019-01-04T00:02:19.321Z,1025.49
2019-01-04T00:03:19.664Z,1025.47
2019-01-04T00:04:19.295Z,1025.45
2019-01-04T00:05:19.286Z,1025.43
2019-01-04T00:06:19.352Z,1025.41
2019-01-04T00:07:19.304Z,1025.44
2019-01-04T00:08:19.255Z,1025.39
2019-01-04T00:09:19.323Z,1025.49
2019-01-04T00:10:19.246Z,1025.47
2019-01-04T00:11:19.226Z,1025.47
2019-01-04T00:12:19.220Z,1025.49
2019-01-04T00:13:19.497Z,1025.52
2019-01-04T00:14:19.195Z,1025.54
2019-01-04T00:15:19.517Z,1025.48
2019-01-04T00:16:19.176Z,1025.52
2019-01-04T00:17:19.261Z,1025.47
2019-01-04T00:18:19.157Z,1025.43
2019-01-04T00:19:19.181Z,1025.42
2019-01-04T00:20:19.134Z,1025.41
2019-01-04T00:21:19.129Z,1025.44
2019-01-04T00:22:19.457Z,1025.51
2019-01-04T00:23:19.102Z,1025.57
2019-01-04T00:24:19.092Z,1025.49
2019-01-04T00:25:19.121Z,1025.57
2019-01-04T00:26:19.071Z,1025.59
2019-01-04T00:27:19.062Z,1025.62
2019-01-04T00:28:19.052Z,1025.58
2019-01-04T00:29:19.480Z,1025.52
2019-01-04T00:30:19.030Z,1025.50
2019-01-04T00:31:19.224Z,1025.49
2019-01-04T00:32:19.012Z,1025.45
2019-01-04T00:33:18.998Z,1025.50
2019-01-04T00:34:19.978Z,1025.46
2019-01-04T00:35:18.981Z,1025.49
2019-01-04T00:36:19.303Z,1025.52
2019-01-04T00:37:19.878Z,1025.47
2019-01-04T00:38:19.527Z,1025.50
2019-01-04T00:39:19.477Z,1025.47
2019-01-04T00:40:18.927Z,1025.45
2019-01-04T00:41:18.925Z,1025.47
2019-01-04T00:42:18.906Z,1025.45
2019-01-04T00:43:19.357Z,1025.52
2019-01-04T00:44:18.890Z,1025.49
2019-01-04T00:45:18.881Z,1025.52
2019-01-04T00:46:18.867Z,1025.54
2019-01-04T00:47:18.858Z,1025.53
2019-01-04T00:48:18.847Z,1025.53
2019-01-04T00:49:18.888Z,1025.53
2019-01-04T00:50:19.139Z,1025.58
2019-01-04T00:51:18.840Z,1025.54
2019-01-04T00:52:18.807Z,1025.55
2019-01-04T00:53:18.799Z,1025.56
2019-01-04T00:54:18.789Z,1025.60
2019-01-04T00:55:18.817Z,1025.58
2019-01-04T00:56:18.933Z,1025.56
2019-01-04T00:57:19.161Z,1025.52
2019-01-04T00:58:18.752Z,1025.48
2019-01-04T00:59:18.734Z,1025.48
2019-01-04T01:00:18.725Z,1025.47
2019-01-04T01:01:18.754Z,1025.47
2019-01-04T01:02:18.711Z,1025.44
2019-01-04T01:03:18.697Z,1025.46
2019-01-04T01:04:19.934Z,1025.46
2019-01-04T01:05:18.674Z,1025.47
2019-01-04T01:06:18.664Z,1025.47
2019-01-04T01:07:18.811Z,1025.54
2019-01-04T01:08:18.643Z,1025.52
2019-01-04T01:09:18.636Z,1025.58
2019-01-04T01:10:18.631Z,1025.54
2019-01-04T01:11:19.006Z,1025.50
2019-01-04T01:12:18.613Z,1025.47
2019-01-04T01:13:18.634Z,1025.50
2019-01-04T01:14:18.585Z,1025.53
2019-01-04T01:15:18.574Z,1025.51
2019-01-04T01:16:18.569Z,1025.49
2019-01-04T01:17:18.555Z,1025.51
2019-01-04T01:18:19.956Z,1025.55
2019-01-04T01:19:18.571Z,1025.52
2019-01-04T01:20:18.522Z,1025.55
2019-01-04T01:21:18.516Z,1025.61
2019-01-04T01:22:18.513Z,1025.61
2019-01-04T01:23:18.503Z,1025.61
2019-01-04T01:24:18.483Z,1025.60
2019-01-04T01:25:18.869Z,1025.58
2019-01-04T01:26:18.463Z,1025.63
2019-01-04T01:27:18.455Z,1025.63
2019-01-04T01:28:18.445Z,1025.65
2019-01-04T01:29:18.432Z,1025.67
2019-01-04T01:30:18.422Z,1025.70
2019-01-04T01:31:18.451Z,1025.69
2019-01-04T01:32:18.704Z,1025.68
2019-01-04T01:33:18.392Z,1025.67
2019-01-04T01:34:18.388Z,1025.67
2019-01-04T01:35:18.372Z,1025.72
2019-01-04T01:36:18.365Z,1025.69
2019-01-04T01:37:18.407Z,1025.66
2019-01-04T01:38:18.343Z,1025.69
2019-01-04T01:39:18.618Z,1025.67
2019-01-04T01:40:18.326Z,1025.69
2019-01-04T01:41:18.315Z,1025.67
2019-01-04T01:42:18.302Z,1025.64
2019-01-04T01:43:18.346Z,1025.67
2019-01-04T01:44:18.289Z,1025.65
2019-01-04T01:45:18.275Z,1025.66
2019-01-04T01:46:18.682Z,1025.65
2019-01-04T01:47:18.257Z,1025.67
2019-01-04T01:48:18.255Z,1025.67
2019-01-04T01:49:18.274Z,1025.66
2019-01-04T01:50:18.234Z,1025.66
2019-01-04T01:51:18.212Z,1025.67
2019-01-04T01:52:18.202Z,1025.63
2019-01-04T01:53:18.196Z,1025.64
2019-01-04T01:54:18.194Z,1025.61
2019-01-04T01:55:18.221Z,1025.61
2019-01-04T01:56:18.167Z,1025.61
2019-01-04T01:57:18.152Z,1025.59
2019-01-04T01:58:18.156Z,1025.61
2019-01-04T01:59:18.433Z,1025.57
2019-01-04T02:00:18.126Z,1025.61
2019-01-04T02:01:18.188Z,1025.59
2019-01-04T02:02:18.104Z,1025.62
2019-01-04T02:03:18.095Z,1025.60
2019-01-04T02:04:18.082Z,1025.63
2019-01-04T02:05:18.081Z,1025.59
2019-01-04T02:06:18.365Z,1025.56
2019-01-04T02:07:18.095Z,1025.53
2019-01-04T02:08:18.045Z,1025.54
2019-01-04T02:09:18.032Z,1025.52
2019-01-04T02:10:18.020Z,1025.51
2019-01-04T02:11:18.013Z,1025.46
2019-01-04T02:12:17.999Z,1025.49
2019-01-04T02:13:18.306Z,1025.45
2019-01-04T02:14:17.992Z,1025.46
2019-01-04T02:15:17.971Z,1025.47
2019-01-04T02:16:17.957Z,1025.41
2019-01-04T02:17:17.947Z,1025.38
2019-01-04T02:18:17.938Z,1025.42
2019-01-04T02:19:18.128Z,1025.42
2019-01-04T02:20:18.203Z,1025.39
2019-01-04T02:21:17.907Z,1025.40
2019-01-04T02:22:17.898Z,1025.38
2019-01-04T02:23:17.885Z,1025.39
2019-01-04T02:24:17.874Z,1025.39
2019-01-04T02:25:17.903Z,1025.37
2019-01-04T02:26:17.855Z,1025.39
2019-01-04T02:27:18.120Z,1025.37
2019-01-04T02:28:17.835Z,1025.38
2019-01-04T02:29:17.851Z,1025.37
2019-01-04T02:30:17.817Z,1025.37
2019-01-04T02:31:17.859Z,1025.34
2019-01-04T02:32:17.790Z,1025.44
2019-01-04T02:33:17.781Z,1025.37
2019-01-04T02:34:18.052Z,1025.37
2019-01-04T02:35:17.761Z,1025.35
2019-01-04T02:36:17.751Z,1025.40
2019-01-04T02:37:17.824Z,1025.44
2019-01-04T02:38:17.730Z,1025.45
2019-01-04T02:39:17.720Z,1025.41
2019-01-04T02:40:17.712Z,1025.37
2019-01-04T02:41:18.001Z,1025.38
2019-01-04T02:42:17.690Z,1025.37
2019-01-04T02:43:17.730Z,1025.31
2019-01-04T02:44:17.672Z,1025.31
2019-01-04T02:45:17.664Z,1025.34
2019-01-04T02:46:17.649Z,1025.33
2019-01-04T02:47:17.640Z,1025.28
2019-01-04T02:48:17.940Z,1025.36
2019-01-04T02:49:17.657Z,1025.38
2019-01-04T02:50:17.608Z,1025.35
2019-01-04T02:51:17.602Z,1025.35
2019-01-04T02:52:17.588Z,1025.32
2019-01-04T02:53:17.580Z,1025.42
2019-01-04T02:54:17.567Z,1025.35
2019-01-04T02:55:18.152Z,1025.36
2019-01-04T02:56:17.548Z,1025.36
2019-01-04T02:57:17.540Z,1025.38
2019-01-04T02:58:17.532Z,1025.37
2019-01-04T02:59:17.519Z,1025.38
2019-01-04T03:01:39.137Z,1025.24
2019-01-04T03:02:39.066Z,1025.21
2019-01-04T03:03:39.046Z,1025.25
2019-01-04T03:04:39.068Z,1025.23
2019-01-04T03:05:39.032Z,1025.18
2019-01-04T03:06:39.023Z,1025.15
2019-01-04T03:07:39.322Z,1025.17
2019-01-04T03:08:38.994Z,1025.21
2019-01-04T03:09:38.990Z,1025.17
2019-01-04T03:10:38.972Z,1025.18
2019-01-04T03:11:38.968Z,1025.19
2019-01-04T03:12:38.951Z,1025.20
2019-01-04T03:13:39.263Z,1025.22
2019-01-04T03:14:38.932Z,1025.26
2019-01-04T03:15:38.921Z,1025.22
2019-01-04T03:16:38.914Z,1025.27
2019-01-04T03:17:38.912Z,1025.24
2019-01-04T03:18:38.889Z,1025.24
2019-01-04T03:19:38.943Z,1025.20
2019-01-04T03:20:39.175Z,1025.22
2019-01-04T03:21:38.870Z,1025.22
2019-01-04T03:22:38.848Z,1025.18
2019-01-04T03:23:38.839Z,1025.20
2019-01-04T03:24:38.826Z,1025.22
2019-01-04T03:25:38.862Z,1025.20
2019-01-04T03:26:38.809Z,1025.14
2019-01-04T03:27:39.098Z,1025.15
2019-01-04T03:28:38.802Z,1025.18
2019-01-04T03:29:38.774Z,1025.16
2019-01-04T03:30:38.767Z,1025.07
2019-01-04T03:31:38.804Z,1025.07
2019-01-04T03:32:38.747Z,1025.07
2019-01-04T03:33:38.735Z,1025.09
2019-01-04T03:34:39.008Z,1025.09
2019-01-04T03:35:38.719Z,1025.07
2019-01-04T03:36:38.702Z,1025.05
2019-01-04T03:37:38.762Z,1025.08
2019-01-04T03:38:38.681Z,1025.09
2019-01-04T03:39:38.671Z,1025.06
2019-01-04T03:40:38.667Z,1025.04
2019-01-04T03:41:38.935Z,1025.09
2019-01-04T03:42:38.640Z,1025.06
2019-01-04T03:43:38.670Z,1025.10
2019-01-04T03:44:38.619Z,1025.13
2019-01-04T03:45:38.611Z,1025.18
2019-01-04T03:46:38.599Z,1025.16
2019-01-04T03:47:38.593Z,1025.19
2019-01-04T03:48:38.856Z,1025.22
2019-01-04T03:49:38.624Z,1025.25
2019-01-04T03:50:38.559Z,1025.23
2019-01-04T03:51:38.547Z,1025.22
2019-01-04T03:52:38.536Z,1025.23
2019-01-04T03:53:38.526Z,1025.19
2019-01-04T03:54:38.527Z,1025.15
2019-01-04T03:55:39.123Z,1025.06
2019-01-04T03:56:38.499Z,1025.05
2019-01-04T03:57:38.485Z,1025.00
2019-01-04T03:58:38.475Z,1025.00
2019-01-04T03:59:38.466Z,1024.97
2019-01-04T04:00:38.459Z,1024.97
2019-01-04T04:01:38.767Z,1024.91
2019-01-04T04:02:38.435Z,1024.92
2019-01-04T04:03:38.423Z,1024.95
2019-01-04T04:04:38.416Z,1024.92
2019-01-04T04:05:38.403Z,1024.92
2019-01-04T04:06:38.394Z,1024.94
2019-01-04T04:07:38.423Z,1024.91
2019-01-04T04:08:38.649Z,1024.93
2019-01-04T04:09:38.361Z,1024.94
2019-01-04T04:10:38.352Z,1024.91
2019-01-04T04:11:38.341Z,1024.91
2019-01-04T04:12:38.330Z,1024.94
2019-01-04T04:13:38.387Z,1024.84
2019-01-04T04:14:38.310Z,1024.88
2019-01-04T04:15:38.576Z,1024.85
2019-01-04T04:16:38.288Z,1024.90
2019-01-04T04:17:38.280Z,1024.87
2019-01-04T04:18:38.267Z,1024.82
2019-01-04T04:19:38.293Z,1024.79
2019-01-04T04:20:38.246Z,1024.81
2019-01-04T04:21:38.235Z,1024.80
2019-01-04T04:22:38.518Z,1024.78
2019-01-04T04:23:38.215Z,1024.75
2019-01-04T04:24:38.204Z,1024.73
2019-01-04T04:25:38.231Z,1024.78
2019-01-04T04:26:38.185Z,1024.78
2019-01-04T04:27:38.175Z,1024.81
2019-01-04T04:28:38.165Z,1024.83
2019-01-04T04:29:38.442Z,1024.83
2019-01-04T04:30:38.142Z,1024.79
2019-01-04T04:31:38.216Z,1024.79
2019-01-04T04:32:38.124Z,1024.83
2019-01-04T04:33:38.111Z,1024.72
2019-01-04T04:34:38.102Z,1024.75
2019-01-04T04:35:38.094Z,1024.77
2019-01-04T04:36:38.361Z,1024.77
2019-01-04T04:37:38.112Z,1024.78
2019-01-04T04:38:38.058Z,1024.80
2019-01-04T04:39:38.048Z,1024.82
2019-01-04T04:40:38.039Z,1024.78
2019-01-04T04:41:38.048Z,1024.74
2019-01-04T04:42:38.016Z,1024.79
2019-01-04T04:43:38.326Z,1024.74
2019-01-04T04:44:38.900Z,1024.76
2019-01-04T04:45:37.986Z,1024.75
2019-01-04T04:46:38.906Z,1024.74
2019-01-04T04:47:37.966Z,1024.70
2019-01-04T04:48:37.962Z,1024.68
2019-01-04T04:49:38.010Z,1024.67
2019-01-04T04:50:38.232Z,1024.70
2019-01-04T04:51:37.929Z,1024.61
2019-01-04T04:52:37.915Z,1024.62
2019-01-04T04:53:37.915Z,1024.59
2019-01-04T04:54:37.910Z,1024.57
2019-01-04T04:55:37.971Z,1024.57
2019-01-04T04:56:37.939Z,1024.54
2019-01-04T04:57:38.312Z,1024.56
2019-01-04T04:58:37.937Z,1024.50
2019-01-04T04:59:37.847Z,1024.53
2019-01-04T05:00:37.833Z,1024.44
2019-01-04T05:01:37.862Z,1024.42
2019-01-04T05:02:37.818Z,1024.49
2019-01-04T05:03:37.805Z,1024.50
2019-01-04T05:04:38.260Z,1024.54
2019-01-04T05:05:37.791Z,1024.59
2019-01-04T05:06:37.775Z,1024.63
2019-01-04T05:07:38.063Z,1024.62
2019-01-04T05:08:37.751Z,1024.67
2019-01-04T05:09:37.742Z,1024.62
2019-01-04T05:10:37.732Z,1024.60
2019-01-04T05:11:38.023Z,1024.64
2019-01-04T05:12:37.710Z,1024.62
2019-01-04T05:13:37.740Z,1024.61
2019-01-04T05:14:37.694Z,1024.59
2019-01-04T05:15:37.682Z,1024.50
2019-01-04T05:16:37.670Z,1024.45
2019-01-04T05:17:37.659Z,1024.43
2019-01-04T05:18:37.941Z,1024.39
2019-01-04T05:19:37.690Z,1024.37
2019-01-04T05:20:37.631Z,1024.35
2019-01-04T05:21:37.618Z,1024.35
2019-01-04T05:22:37.614Z,1024.33
2019-01-04T05:23:37.598Z,1024.27
2019-01-04T05:24:37.588Z,1024.27
2019-01-04T05:25:37.980Z,1024.28
2019-01-04T05:26:37.567Z,1024.24
2019-01-04T05:27:37.558Z,1024.27
2019-01-04T05:28:37.549Z,1024.25
2019-01-04T05:29:37.536Z,1024.24
2019-01-04T05:30:37.527Z,1024.24
2019-01-04T05:31:37.833Z,1024.24
2019-01-04T05:32:37.506Z,1024.22
2019-01-04T05:33:37.495Z,1024.21
2019-01-04T05:34:37.485Z,1024.24
2019-01-04T05:35:37.473Z,1024.22
2019-01-04T05:36:37.462Z,1024.20
2019-01-04T05:37:37.508Z,1024.17
2019-01-04T05:38:38.758Z,1024.22
2019-01-04T05:39:37.430Z,1024.23
2019-01-04T05:40:37.420Z,1024.19
2019-01-04T05:41:37.412Z,1024.12
2019-01-04T05:42:37.404Z,1024.10
2019-01-04T05:43:37.441Z,1024.05
2019-01-04T05:44:37.379Z,1024.08
2019-01-04T05:45:37.650Z,1024.09
2019-01-04T05:46:37.358Z,1024.07
2019-01-04T05:47:37.351Z,1024.09
2019-01-04T05:48:37.339Z,1024.10
2019-01-04T05:49:37.366Z,1024.06
2019-01-04T05:50:37.315Z,1024.03
2019-01-04T05:51:37.306Z,1024.02
2019-01-04T05:52:37.602Z,1024.05
2019-01-04T05:53:37.284Z,1023.98
2019-01-04T05:54:37.274Z,1024.02
2019-01-04T05:55:37.300Z,1024.03
2019-01-04T05:56:37.265Z,1023.99
2019-01-04T05:57:37.243Z,1023.99
2019-01-04T05:58:37.231Z,1024.00
2019-01-04T05:59:37.505Z,1024.00
2019-01-04T06:00:37.212Z,1023.96
2019-01-04T06:01:37.248Z,1024.00
2019-01-04T06:02:37.294Z,1023.96
2019-01-04T06:03:37.186Z,1024.02
2019-01-04T06:04:37.169Z,1024.03
2019-01-04T06:05:37.158Z,1024.01
2019-01-04T06:06:37.603Z,1024.01
2019-01-04T06:07:37.177Z,1023.93
2019-01-04T06:08:37.129Z,1024.00
2019-01-04T06:09:37.118Z,1023.99
2019-01-04T06:10:37.107Z,1024.02
2019-01-04T06:11:37.098Z,1024.01
2019-01-04T06:12:37.094Z,1024.02
2019-01-04T06:13:37.404Z,1024.02
2019-01-04T06:14:37.109Z,1024.03
2019-01-04T06:15:37.121Z,1024.12
2019-01-04T06:16:37.188Z,1024.12
2019-01-04T06:17:37.038Z,1024.10
2019-01-04T06:18:37.317Z,1024.10
2019-01-04T06:19:37.070Z,1024.07
2019-01-04T06:20:37.007Z,1024.09
2019-01-04T06:21:36.994Z,1024.07
2019-01-04T06:22:38.078Z,1024.10
2019-01-04T06:23:36.974Z,1024.07
2019-01-04T06:24:36.967Z,1024.05
2019-01-04T06:25:36.996Z,1024.07
2019-01-04T06:26:36.946Z,1024.06
2019-01-04T06:27:36.934Z,1024.00
2019-01-04T06:28:36.924Z,1024.01
2019-01-04T06:29:36.915Z,1023.93
2019-01-04T06:30:37.354Z,1023.95
2019-01-04T06:31:36.929Z,1023.91
2019-01-04T06:32:36.906Z,1023.91
2019-01-04T06:33:36.870Z,1023.93
2019-01-04T06:34:36.860Z,1023.88
2019-01-04T06:35:36.854Z,1023.86
2019-01-04T06:36:36.839Z,1023.86
2019-01-04T06:37:38.358Z,1023.90
2019-01-04T06:38:37.108Z,1023.94
2019-01-04T06:39:36.811Z,1023.93
2019-01-04T06:40:36.938Z,1023.94
2019-01-04T06:41:36.864Z,1023.93
2019-01-04T06:42:36.938Z,1023.92
2019-01-04T06:43:36.839Z,1023.91
2019-01-04T06:44:37.191Z,1023.88
2019-01-04T06:45:36.750Z,1023.92
2019-01-04T06:46:36.742Z,1023.90
2019-01-04T06:47:36.737Z,1023.95
2019-01-04T06:48:36.714Z,1023.97
2019-01-04T06:49:36.744Z,1023.95
2019-01-04T06:50:37.399Z,1023.95
2019-01-04T06:51:38.020Z,1024.01
2019-01-04T06:52:36.674Z,1024.04
2019-01-04T06:53:36.663Z,1024.01
2019-01-04T06:54:36.654Z,1024.01
2019-01-04T06:55:36.843Z,1023.96
2019-01-04T06:56:36.631Z,1023.95
2019-01-04T06:57:36.619Z,1023.96
2019-01-04T06:58:37.011Z,1023.91
2019-01-04T06:59:36.600Z,1024.00
2019-01-04T07:00:36.595Z,1023.97
2019-01-04T07:01:36.624Z,1023.99
2019-01-04T07:02:36.575Z,1023.97
2019-01-04T07:03:36.563Z,1023.93
2019-01-04T07:04:36.594Z,1024.01
2019-01-04T07:05:37.072Z,1023.98
2019-01-04T07:06:36.538Z,1023.96
2019-01-04T07:07:36.558Z,1023.99
2019-01-04T07:08:36.507Z,1024.04
2019-01-04T07:09:36.499Z,1024.04
2019-01-04T07:10:36.487Z,1024.07
2019-01-04T07:11:36.489Z,1024.05
2019-01-04T07:12:36.846Z,1024.05
2019-01-04T07:13:36.540Z,1024.05
2019-01-04T07:14:36.450Z,1024.01
2019-01-04T07:15:36.434Z,1023.99
2019-01-04T07:16:36.429Z,1024.04
2019-01-04T07:17:36.416Z,1023.99
2019-01-04T07:18:36.410Z,1024.00
2019-01-04T07:19:36.897Z,1023.98
2019-01-04T07:20:36.386Z,1024.02
2019-01-04T07:21:36.375Z,1024.03
2019-01-04T07:22:36.365Z,1024.04
2019-01-04T07:23:36.358Z,1024.02
2019-01-04T07:24:36.346Z,1024.05
2019-01-04T07:25:36.470Z,1024.05
2019-01-04T07:26:36.666Z,1024.07
2019-01-04T07:27:36.311Z,1024.08
2019-01-04T07:28:36.304Z,1024.11
2019-01-04T07:29:36.291Z,1024.04
2019-01-04T07:30:36.286Z,1024.07
2019-01-04T07:31:37.136Z,1024.09
2019-01-04T07:32:36.271Z,1024.08
2019-01-04T07:33:36.691Z,1024.10
2019-01-04T07:34:36.243Z,1024.06
2019-01-04T07:35:36.233Z,1024.06
2019-01-04T07:36:36.220Z,1023.98
2019-01-04T07:37:36.412Z,1023.92
2019-01-04T07:38:36.202Z,1023.88
2019-01-04T07:39:36.188Z,1023.80
2019-01-04T07:40:36.506Z,1023.84
2019-01-04T07:41:36.170Z,1023.76
2019-01-04T07:42:36.161Z,1023.78
2019-01-04T07:43:36.185Z,1023.75
2019-01-04T07:44:36.143Z,1023.77
2019-01-04T07:45:36.130Z,1023.78
2019-01-04T07:46:36.116Z,1023.79
2019-01-04T07:47:36.534Z,1023.73
2019-01-04T07:48:36.095Z,1023.71
2019-01-04T07:49:36.947Z,1023.76
2019-01-04T07:50:36.865Z,1023.72
2019-01-04T07:51:36.078Z,1023.73
2019-01-04T07:52:36.056Z,1023.71
2019-01-04T07:53:36.046Z,1023.65
2019-01-04T07:54:36.375Z,1023.69
2019-01-04T07:55:36.111Z,1023.65
2019-01-04T07:56:36.011Z,1023.65
2019-01-04T07:57:36.862Z,1023.71
2019-01-04T07:58:35.993Z,1023.64
2019-01-04T07:59:35.988Z,1023.67
2019-01-04T08:00:35.992Z,1023.60
2019-01-04T08:01:36.038Z,1023.52
2019-01-04T08:02:35.964Z,1023.43
2019-01-04T08:03:36.862Z,1023.46
2019-01-04T08:04:35.929Z,1023.42
2019-01-04T08:05:35.919Z,1023.38
2019-01-04T08:06:37.825Z,1023.24
2019-01-04T08:07:36.408Z,1023.24
2019-01-04T08:08:35.893Z,1023.25
2019-01-04T08:09:35.878Z,1023.25
2019-01-04T08:10:35.869Z,1023.28
2019-01-04T08:11:35.857Z,1023.23
2019-01-04T08:12:35.848Z,1023.27
2019-01-04T08:13:36.100Z,1023.33
2019-01-04T08:14:36.169Z,1023.32
2019-01-04T08:15:35.835Z,1023.47
2019-01-04T08:16:35.805Z,1023.46
2019-01-04T08:17:35.795Z,1023.43
2019-01-04T08:18:35.784Z,1023.45
2019-01-04T08:19:35.813Z,1023.40
2019-01-04T08:20:35.763Z,1023.37
2019-01-04T08:21:36.191Z,1023.42
2019-01-04T08:22:35.748Z,1023.40
2019-01-04T08:23:35.802Z,1023.40
2019-01-04T08:24:35.756Z,1023.43
2019-01-04T08:25:35.766Z,1023.38
2019-01-04T08:26:35.701Z,1023.40
2019-01-04T08:27:35.690Z,1023.46
2019-01-04T08:28:35.681Z,1023.44
2019-01-04T08:29:35.703Z,1023.41
2019-01-04T08:30:35.794Z,1023.43
2019-01-04T08:31:36.826Z,1023.44
2019-01-04T08:32:35.666Z,1023.45
2019-01-04T08:33:35.662Z,1023.50
2019-01-04T08:34:35.995Z,1023.48
2019-01-04T08:35:35.853Z,1023.47
2019-01-04T08:36:35.606Z,1023.50
2019-01-04T08:37:35.627Z,1023.46
2019-01-04T08:38:35.579Z,1023.54
2019-01-04T08:39:35.568Z,1023.58
2019-01-04T08:40:35.557Z,1023.54
2019-01-04T08:41:35.546Z,1023.56
2019-01-04T08:42:35.539Z,1023.55
2019-01-04T08:43:36.818Z,1023.52
2019-01-04T08:44:35.521Z,1023.52
2019-01-04T08:45:35.505Z,1023.54
2019-01-04T08:46:35.972Z,1023.54
2019-01-04T08:47:35.483Z,1023.53
2019-01-04T08:48:35.663Z,1023.55
2019-01-04T08:49:35.748Z,1023.54
2019-01-04T08:50:35.473Z,1023.53
2019-01-04T08:51:35.520Z,1023.53
2019-01-04T08:52:35.503Z,1023.47
2019-01-04T08:53:35.469Z,1023.46
2019-01-04T08:54:35.427Z,1023.41
2019-01-04T08:55:35.532Z,1023.41
2019-01-04T08:56:35.575Z,1023.34
2019-01-04T08:57:35.489Z,1023.40
2019-01-04T08:58:35.827Z,1023.40
2019-01-04T08:59:35.543Z,1023.33
2019-01-04T09:00:35.515Z,1023.29
2019-01-04T09:01:35.388Z,1023.30
2019-01-04T09:02:35.332Z,1023.28
2019-01-04T09:03:35.327Z,1023.26
2019-01-04T09:04:35.532Z,1023.24
2019-01-04T09:05:35.944Z,1023.17
2019-01-04T09:06:35.358Z,1023.16
2019-01-04T09:07:35.319Z,1023.20
2019-01-04T09:08:35.267Z,1023.17
2019-01-04T09:09:35.282Z,1023.15
2019-01-04T09:10:35.247Z,1023.21
2019-01-04T09:11:35.371Z,1023.24
2019-01-04T09:12:35.517Z,1023.25
2019-01-04T09:13:36.016Z,1023.27
2019-01-04T09:14:35.288Z,1023.28
2019-01-04T09:15:35.207Z,1023.34
2019-01-04T09:16:35.185Z,1023.37
2019-01-04T09:17:35.176Z,1023.31
2019-01-04T09:18:35.288Z,1023.28
2019-01-04T09:19:35.634Z,1023.30
2019-01-04T09:20:35.255Z,1023.32
2019-01-04T09:21:35.156Z,1023.25
2019-01-04T09:22:35.846Z,1023.26
2019-01-04T09:23:35.115Z,1023.27
2019-01-04T09:24:35.146Z,1023.23
2019-01-04T09:25:36.209Z,1023.18
2019-01-04T09:26:36.831Z,1023.15
2019-01-04T09:27:35.153Z,1023.11
2019-01-04T09:28:35.109Z,1023.12
2019-01-04T09:29:35.845Z,1023.08
2019-01-04T09:30:35.045Z,1023.14
2019-01-04T09:31:36.518Z,1023.17
2019-01-04T09:32:35.236Z,1023.12
2019-01-04T09:33:35.013Z,1023.11
2019-01-04T09:34:35.847Z,1023.06
2019-01-04T09:35:34.991Z,1023.12
2019-01-04T09:36:34.981Z,1023.05
2019-01-04T09:37:35.168Z,1023.08
2019-01-04T09:38:35.274Z,1023.03
2019-01-04T09:39:35.104Z,1022.99
2019-01-04T09:40:34.947Z,1023.00
2019-01-04T09:41:34.931Z,1023.00
2019-01-04T09:42:34.918Z,1022.93
2019-01-04T09:43:34.993Z,1022.92
2019-01-04T09:44:34.907Z,1022.84
2019-01-04T09:45:35.336Z,1022.86
2019-01-04T09:46:34.881Z,1022.82
2019-01-04T09:47:34.957Z,1022.74
2019-01-04T09:48:34.994Z,1022.72
2019-01-04T09:49:35.192Z,1022.75
2019-01-04T09:50:34.952Z,1022.74
2019-01-04T09:51:35.056Z,1022.71
2019-01-04T09:52:35.359Z,1022.73
2019-01-04T09:53:34.922Z,1022.73
2019-01-04T09:54:35.804Z,1022.70
2019-01-04T09:55:35.293Z,1022.64
2019-01-04T09:56:34.989Z,1022.66
2019-01-04T09:57:34.952Z,1022.60
2019-01-04T09:58:34.755Z,1022.62
2019-01-04T09:59:35.118Z,1022.61
2019-01-04T10:00:34.757Z,1022.55
2019-01-04T10:01:34.833Z,1022.52
2019-01-04T10:02:34.712Z,1022.57
2019-01-04T10:03:34.706Z,1022.55
2019-01-04T10:04:34.702Z,1022.55
2019-01-04T10:05:34.683Z,1022.58
2019-01-04T10:06:35.131Z,1022.54
2019-01-04T10:07:34.783Z,1022.50
2019-01-04T10:08:34.652Z,1022.50
2019-01-04T10:09:34.645Z,1022.51
2019-01-04T10:10:34.632Z,1022.47
2019-01-04T10:11:34.624Z,1022.49
2019-01-04T10:12:34.610Z,1022.49
2019-01-04T10:13:35.185Z,1022.46
2019-01-04T10:14:34.667Z,1022.45
2019-01-04T10:15:34.578Z,1022.40
2019-01-04T10:16:34.650Z,1022.48
2019-01-04T10:17:34.558Z,1022.42
2019-01-04T10:18:34.593Z,1022.39
2019-01-04T10:19:34.706Z,1022.39
2019-01-04T10:20:34.996Z,1022.34
2019-01-04T10:21:34.719Z,1022.32
2019-01-04T10:22:34.676Z,1022.34
2019-01-04T10:23:34.521Z,1022.28
2019-01-04T10:24:34.482Z,1022.32
2019-01-04T10:25:34.554Z,1022.31
2019-01-04T10:26:34.462Z,1022.31
2019-01-04T10:27:34.799Z,1022.28
2019-01-04T10:28:34.451Z,1022.28
2019-01-04T10:29:35.124Z,1022.27
2019-01-04T10:30:34.578Z,1022.18
2019-01-04T10:31:34.986Z,1022.15
2019-01-04T10:32:34.559Z,1022.12
2019-01-04T10:33:34.662Z,1022.06
2019-01-04T10:34:34.855Z,1022.07
2019-01-04T10:35:34.502Z,1021.99
2019-01-04T10:36:34.638Z,1021.97
2019-01-04T10:37:34.850Z,1021.98
2019-01-04T10:38:34.383Z,1021.94
2019-01-04T10:39:34.327Z,1021.92
2019-01-04T10:40:34.608Z,1021.93
2019-01-04T10:41:34.621Z,1021.90
2019-01-04T10:42:34.293Z,1021.92
2019-01-04T10:43:34.365Z,1021.98
2019-01-04T10:44:34.383Z,1021.95
2019-01-04T10:45:34.394Z,1021.95
2019-01-04T10:46:34.697Z,1021.89
2019-01-04T10:47:34.439Z,1021.90
2019-01-04T10:48:34.787Z,1021.83
2019-01-04T10:49:34.802Z,1021.90
2019-01-04T10:50:34.400Z,1021.82
2019-01-04T10:51:34.379Z,1021.83
2019-01-04T10:52:34.422Z,1021.87
2019-01-04T10:53:34.187Z,1021.84
2019-01-04T10:54:34.480Z,1021.85
2019-01-04T10:55:34.551Z,1021.93
2019-01-04T10:56:34.161Z,1021.89
2019-01-04T10:57:34.159Z,1021.88
2019-01-04T10:58:34.141Z,1021.85
2019-01-04T10:59:34.136Z,1021.81
2019-01-04T11:00:35.392Z,1021.81
2019-01-04T11:01:34.331Z,1021.77
2019-01-04T11:02:35.289Z,1021.74
2019-01-04T11:03:34.218Z,1021.73
2019-01-04T11:04:34.379Z,1021.79
2019-01-04T11:05:34.636Z,1021.76
2019-01-04T11:06:34.899Z,1021.78
2019-01-04T11:07:34.933Z,1021.82
2019-01-04T11:08:34.133Z,1021.79
2019-01-04T11:09:34.004Z,1021.79
2019-01-04T11:10:34.721Z,1021.79
2019-01-04T11:11:33.985Z,1021.81
2019-01-04T11:12:34.394Z,1021.76
2019-01-04T11:13:34.171Z,1021.78
2019-01-04T11:14:34.942Z,1021.80
2019-01-04T11:15:34.028Z,1021.78
2019-01-04T11:16:34.075Z,1021.78
2019-01-04T11:17:34.021Z,1021.76
2019-01-04T11:18:34.528Z,1021.77
2019-01-04T11:19:34.236Z,1021.78
2019-01-04T11:20:33.968Z,1021.83
2019-01-04T11:21:33.875Z,1021.80
2019-01-04T11:22:33.868Z,1021.81
2019-01-04T11:23:33.943Z,1021.85
2019-01-04T11:24:33.863Z,1021.79
2019-01-04T11:25:34.423Z,1021.78
2019-01-04T11:26:33.853Z,1021.76
2019-01-04T11:27:33.930Z,1021.73
2019-01-04T11:28:34.060Z,1021.70
2019-01-04T11:29:34.078Z,1021.66
2019-01-04T11:30:33.892Z,1021.63
2019-01-04T11:31:34.006Z,1021.63
2019-01-04T11:32:34.322Z,1021.64
2019-01-04T11:33:33.939Z,1021.57
2019-01-04T11:34:33.988Z,1021.53
2019-01-04T11:35:33.879Z,1021.50
2019-01-04T11:36:33.999Z,1021.47
2019-01-04T11:37:33.936Z,1021.41
2019-01-04T11:38:33.819Z,1021.34
2019-01-04T11:39:34.290Z,1021.30
2019-01-04T11:40:33.894Z,1021.26
2019-01-04T11:41:33.675Z,1021.19
2019-01-04T11:42:33.835Z,1021.22
2019-01-04T11:43:34.017Z,1021.17
2019-01-04T11:44:33.657Z,1021.14
2019-01-04T11:45:34.409Z,1021.13
2019-01-04T11:46:35.295Z,1021.10
2019-01-04T11:47:33.639Z,1021.06
2019-01-04T11:48:33.676Z,1021.01
2019-01-04T11:49:34.259Z,1021.03
2019-01-04T11:50:34.103Z,1020.98
2019-01-04T11:51:33.615Z,1020.96
2019-01-04T11:52:33.799Z,1020.94
2019-01-04T11:53:34.040Z,1020.91
2019-01-04T11:54:33.746Z,1020.89
2019-01-04T11:55:33.794Z,1020.82
2019-01-04T11:56:33.643Z,1020.81
2019-01-04T11:57:33.490Z,1020.86
2019-01-04T11:58:33.530Z,1020.88
2019-01-04T11:59:33.468Z,1020.92
2019-01-04T12:00:33.890Z,1020.94
2019-01-04T12:01:33.542Z,1020.96
2019-01-04T12:02:33.593Z,1020.88
2019-01-04T12:03:34.347Z,1020.91
2019-01-04T12:04:33.675Z,1020.86
2019-01-04T12:05:33.404Z,1020.85
2019-01-04T12:06:33.560Z,1020.81